createdAt,value
2023-12-16T00:02:10.324Z,18.89
2023-12-16T00:05:13.802Z,18.85
2023-12-16T00:08:16.950Z,18.94
2023-12-16T00:11:22.490Z,18.70
2023-12-16T00:14:25.660Z,18.74
2023-12-16T00:17:28.920Z,18.67
2023-12-16T00:20:32.272Z,18.64
2023-12-16T00:23:35.623Z,18.70
2023-12-16T00:26:38.940Z,18.74
2023-12-16T00:29:42.082Z,18.62
2023-12-16T00:32:45.364Z,18.76
2023-12-16T00:35:48.659Z,18.67
2023-12-16T00:38:51.830Z,18.56
2023-12-16T00:41:55.031Z,18.42
2023-12-16T00:44:58.565Z,18.50
2023-12-16T00:48:01.849Z,18.42
2023-12-16T00:51:05.524Z,18.56
2023-12-16T00:54:08.794Z,18.56
2023-12-16T00:57:12.121Z,18.44
2023-12-16T01:00:15.739Z,18.57
2023-12-16T01:03:19.235Z,18.47
2023-12-16T01:06:22.540Z,18.50
2023-12-16T01:09:26.033Z,18.55
2023-12-16T01:12:29.384Z,18.28
2023-12-16T01:15:32.759Z,18.23
2023-12-16T01:18:36.189Z,18.25
2023-12-16T01:21:44.736Z,18.14
2023-12-16T01:24:47.964Z,18.14
2023-12-16T01:27:51.336Z,18.11
2023-12-16T01:30:54.661Z,18.21
2023-12-16T01:33:58.032Z,18.42
2023-12-16T01:37:01.198Z,18.12
2023-12-16T01:40:04.758Z,18.03
2023-12-16T01:43:08.830Z,18.00
2023-12-16T01:46:12.433Z,18.03
2023-12-16T01:49:16.169Z,18.02
2023-12-16T01:52:20.133Z,17.99
2023-12-16T01:55:24.596Z,17.96
2023-12-16T01:58:27.926Z,17.98
2023-12-16T02:01:31.354Z,17.96
2023-12-16T02:04:34.784Z,17.94
2023-12-16T02:07:38.421Z,17.99
2023-12-16T02:10:41.898Z,18.09
2023-12-16T02:13:45.172Z,17.98
2023-12-16T02:16:48.545Z,17.83
2023-12-16T02:19:55.731Z,17.50
2023-12-16T02:22:59.503Z,17.52
2023-12-16T02:26:04.778Z,17.62
2023-12-16T02:29:08.088Z,17.79
2023-12-16T02:32:12.068Z,17.84
2023-12-16T02:35:15.428Z,17.66
2023-12-16T02:38:18.756Z,17.77
2023-12-16T02:41:22.023Z,17.79
2023-12-16T02:44:25.237Z,17.92
2023-12-16T02:47:28.620Z,17.84
2023-12-16T02:50:31.825Z,17.78
2023-12-16T02:53:34.941Z,17.70
2023-12-16T02:56:38.191Z,17.79
2023-12-16T02:59:42.858Z,17.77
2023-12-16T03:02:46.076Z,17.77
2023-12-16T03:05:51.721Z,17.60
2023-12-16T03:08:55.029Z,17.63
2023-12-16T03:11:58.315Z,17.51
2023-12-16T03:15:01.642Z,17.44
2023-12-16T03:18:05.054Z,17.30
2023-12-16T03:21:11.230Z,17.22
2023-12-16T03:24:16.370Z,17.17
2023-12-16T03:27:19.874Z,17.17
2023-12-16T03:30:23.262Z,17.13
2023-12-16T03:33:26.637Z,17.18
2023-12-16T03:36:29.899Z,17.18
2023-12-16T03:39:33.392Z,17.15
2023-12-16T03:42:36.631Z,17.32
2023-12-16T03:45:39.885Z,17.27
2023-12-16T03:48:43.250Z,17.34
2023-12-16T03:51:46.586Z,17.30
2023-12-16T03:54:49.804Z,16.86
2023-12-16T03:57:53.052Z,17.01
2023-12-16T04:00:56.596Z,17.01
2023-12-16T04:03:59.835Z,16.98
2023-12-16T04:07:03.261Z,17.15
2023-12-16T04:10:07.309Z,17.24
2023-12-16T04:13:10.647Z,17.15
2023-12-16T04:16:13.978Z,17.42
2023-12-16T04:19:17.370Z,17.30
2023-12-16T04:22:21.462Z,17.14
2023-12-16T04:25:24.687Z,17.09
2023-12-16T04:28:30.086Z,17.08
2023-12-16T04:31:33.346Z,17.05
2023-12-16T04:34:36.569Z,16.99
2023-12-16T04:37:40.152Z,17.09
2023-12-16T04:40:44.641Z,16.80
2023-12-16T04:43:48.012Z,16.74
2023-12-16T04:46:51.176Z,16.98
2023-12-16T04:49:54.391Z,16.89
2023-12-16T04:52:57.683Z,16.88
2023-12-16T04:56:01.360Z,16.95
2023-12-16T04:59:04.626Z,16.61
2023-12-16T05:02:07.890Z,16.63
2023-12-16T05:05:11.050Z,16.48
2023-12-16T05:08:14.343Z,16.60
2023-12-16T05:11:19.593Z,16.44
2023-12-16T05:14:22.865Z,16.46
2023-12-16T05:17:26.137Z,16.52
2023-12-16T05:20:29.362Z,16.52
2023-12-16T05:23:32.645Z,16.34
2023-12-16T05:26:35.960Z,16.48
2023-12-16T05:29:39.155Z,16.50
2023-12-16T05:32:43.206Z,16.34
2023-12-16T05:35:46.576Z,16.37
2023-12-16T05:38:50.046Z,16.46
2023-12-16T05:41:53.294Z,16.61
2023-12-16T05:44:56.523Z,16.63
2023-12-16T05:47:59.695Z,16.38
2023-12-16T05:51:03.185Z,16.50
2023-12-16T05:54:07.620Z,16.61
2023-12-16T05:57:10.962Z,16.63
2023-12-16T06:00:16.083Z,16.42
2023-12-16T06:03:19.441Z,16.21
2023-12-16T06:06:22.861Z,16.12
2023-12-16T06:09:26.196Z,16.18
2023-12-16T06:12:29.334Z,16.26
2023-12-16T06:15:36.431Z,16.24
2023-12-16T06:18:39.362Z,16.13
2023-12-16T06:21:42.796Z,16.19
2023-12-16T06:24:45.861Z,16.14
2023-12-16T06:27:49.214Z,16.05
2023-12-16T06:30:52.532Z,16.01
2023-12-16T06:33:56.049Z,16.08
2023-12-16T06:36:59.456Z,16.11
2023-12-16T06:40:03.962Z,16.08
2023-12-16T06:43:08.322Z,16.18
2023-12-16T06:46:11.592Z,15.97
2023-12-16T06:49:14.948Z,15.93
2023-12-16T06:52:18.580Z,16.14
2023-12-16T06:55:21.899Z,16.12
2023-12-16T06:58:25.104Z,16.25
2023-12-16T07:01:28.271Z,16.21
2023-12-16T07:04:31.517Z,16.04
2023-12-16T07:07:34.891Z,15.92
2023-12-16T07:10:38.096Z,15.98
2023-12-16T07:13:41.240Z,15.81
2023-12-16T07:16:44.495Z,15.67
2023-12-16T07:19:47.855Z,15.74
2023-12-16T07:22:51.138Z,15.69
2023-12-16T07:25:54.270Z,15.59
2023-12-16T07:28:57.480Z,15.70
2023-12-16T07:32:00.787Z,15.71
2023-12-16T07:35:04.371Z,15.70
2023-12-16T07:38:08.782Z,15.75
2023-12-16T07:41:12.182Z,15.73
2023-12-16T07:44:15.340Z,15.62
2023-12-16T07:47:19.173Z,15.58
2023-12-16T07:50:22.305Z,15.56
2023-12-16T07:53:25.577Z,15.56
2023-12-16T07:56:29.567Z,15.55
2023-12-16T07:59:32.814Z,15.47
2023-12-16T08:02:36.127Z,15.43
2023-12-16T08:05:41.096Z,15.34
2023-12-16T08:08:46.520Z,15.33
2023-12-16T08:11:49.730Z,15.26
2023-12-16T08:14:52.994Z,15.12
2023-12-16T08:17:56.243Z,15.21
2023-12-16T08:20:59.416Z,15.21
2023-12-16T08:24:02.572Z,15.34
2023-12-16T08:27:05.945Z,15.35
2023-12-16T08:30:09.668Z,15.03
2023-12-16T08:33:16.870Z,15.05
2023-12-16T08:36:20.269Z,15.17
2023-12-16T08:39:23.444Z,15.29
2023-12-16T08:42:26.637Z,15.23
2023-12-16T08:45:29.777Z,15.13
2023-12-16T08:48:33.023Z,15.24
2023-12-16T08:51:36.206Z,15.15
2023-12-16T08:54:41.516Z,15.02
2023-12-16T08:57:46.039Z,15.13
2023-12-16T09:00:49.504Z,15.22
2023-12-16T09:03:53.172Z,15.24
2023-12-16T09:06:57.051Z,15.21
2023-12-16T09:10:00.351Z,15.27
2023-12-16T09:13:03.844Z,15.15
2023-12-16T09:16:07.228Z,15.18
2023-12-16T09:19:10.584Z,15.02
2023-12-16T09:22:13.831Z,14.96
2023-12-16T09:25:17.148Z,14.94
2023-12-16T09:28:20.446Z,14.84
2023-12-16T09:31:24.528Z,14.92
2023-12-16T09:34:27.730Z,15.06
2023-12-16T09:37:31.040Z,15.05
2023-12-16T09:40:34.314Z,14.93
2023-12-16T09:43:39.053Z,14.79
2023-12-16T09:46:42.755Z,14.68
2023-12-16T09:49:46.137Z,14.79
2023-12-16T09:52:49.475Z,14.67
2023-12-16T09:55:54.822Z,14.43
2023-12-16T09:58:58.430Z,14.50
2023-12-16T10:02:05.690Z,14.24
2023-12-16T10:05:09.725Z,14.38
2023-12-16T10:08:12.958Z,14.57
2023-12-16T10:11:17.964Z,14.71
2023-12-16T10:14:21.089Z,14.63
2023-12-16T10:17:24.181Z,14.63
2023-12-16T10:20:27.988Z,14.63
2023-12-16T10:23:31.416Z,14.67
2023-12-16T10:26:34.952Z,14.52
2023-12-16T10:29:39.717Z,14.59
2023-12-16T10:32:45.915Z,14.67
2023-12-16T10:35:49.426Z,14.65
2023-12-16T10:38:52.680Z,14.60
2023-12-16T10:41:55.784Z,14.69
2023-12-16T10:44:59.014Z,14.47
2023-12-16T10:48:02.865Z,14.31
2023-12-16T10:51:07.236Z,14.24
2023-12-16T10:54:20.374Z,14.57
2023-12-16T10:57:31.056Z,14.57
2023-12-16T11:00:35.519Z,14.29
2023-12-16T11:03:45.287Z,14.45
2023-12-16T11:06:57.224Z,14.31
2023-12-16T11:10:00.663Z,14.44
2023-12-16T11:13:04.985Z,14.36
2023-12-16T11:16:19.504Z,14.29
2023-12-16T11:19:27.022Z,14.45
2023-12-16T11:22:30.286Z,14.44
2023-12-16T11:25:35.668Z,14.26
2023-12-16T11:28:39.276Z,14.00
2023-12-16T11:31:42.472Z,14.13
2023-12-16T11:34:47.082Z,14.09
2023-12-16T11:37:50.287Z,14.04
2023-12-16T11:40:53.741Z,14.14
2023-12-16T11:43:56.863Z,14.06
2023-12-16T11:47:00.553Z,14.41
2023-12-16T11:50:03.807Z,14.35
2023-12-16T11:53:08.596Z,14.32
2023-12-16T11:56:11.714Z,14.27
2023-12-16T11:59:15.090Z,14.21
2023-12-16T12:02:19.526Z,14.27
2023-12-16T12:05:22.998Z,14.39
2023-12-16T12:08:27.471Z,14.30
2023-12-16T12:11:30.785Z,14.31
2023-12-16T12:14:34.055Z,14.30
2023-12-16T12:17:38.189Z,14.38
2023-12-16T12:20:41.463Z,14.36
2023-12-16T12:23:44.728Z,14.21
2023-12-16T12:26:47.913Z,14.33
2023-12-16T12:29:57.605Z,14.47
2023-12-16T12:33:00.944Z,14.19
2023-12-16T12:36:04.902Z,14.10
2023-12-16T12:39:08.416Z,13.92
2023-12-16T12:42:11.758Z,14.26
2023-12-16T12:45:48.937Z,14.22
2023-12-16T12:48:56.930Z,14.06
2023-12-16T12:52:01.960Z,13.93
2023-12-16T12:55:05.975Z,13.99
2023-12-16T12:58:15.178Z,13.79
2023-12-16T13:01:23.397Z,13.79
2023-12-16T13:04:26.699Z,13.73
2023-12-16T13:07:29.978Z,13.78
2023-12-16T13:10:33.536Z,13.69
2023-12-16T13:13:36.878Z,13.64
2023-12-16T13:16:40.271Z,13.53
2023-12-16T13:19:43.808Z,13.69
2023-12-16T13:22:46.997Z,13.75
2023-12-16T13:25:50.848Z,13.69
2023-12-16T13:28:54.561Z,13.55
2023-12-16T13:32:01.680Z,13.74
2023-12-16T13:35:05.751Z,13.80
2023-12-16T13:38:11.008Z,13.68
2023-12-16T13:41:14.261Z,13.58
2023-12-16T13:44:17.518Z,13.47
2023-12-16T13:47:20.819Z,13.62
2023-12-16T13:50:24.109Z,13.12
2023-12-16T13:53:27.219Z,13.28
2023-12-16T13:56:30.552Z,13.73
2023-12-16T13:59:33.957Z,13.67
2023-12-16T14:02:37.348Z,13.82
2023-12-16T14:05:40.749Z,13.67
2023-12-16T14:08:44.016Z,13.82
2023-12-16T14:11:47.533Z,13.83
2023-12-16T14:14:51.079Z,13.86
2023-12-16T14:17:54.319Z,13.84
2023-12-16T14:20:57.783Z,13.66
2023-12-16T14:24:01.191Z,13.78
2023-12-16T14:27:04.777Z,13.42
2023-12-16T14:30:08.912Z,13.50
2023-12-16T14:33:12.406Z,13.41
2023-12-16T14:36:15.723Z,13.43
2023-12-16T14:39:19.032Z,13.39
2023-12-16T14:42:23.787Z,13.50
2023-12-16T14:45:26.956Z,13.39
2023-12-16T14:48:30.364Z,13.48
2023-12-16T14:51:40.286Z,13.64
2023-12-16T14:54:44.571Z,13.69
2023-12-16T14:57:47.745Z,13.71
2023-12-16T15:00:51.066Z,13.69
2023-12-16T15:03:54.491Z,13.74
2023-12-16T15:06:57.933Z,13.79
2023-12-16T15:10:01.360Z,13.82
2023-12-16T15:13:06.398Z,13.72
2023-12-16T15:16:11.163Z,13.65
2023-12-16T15:19:16.438Z,13.48
2023-12-16T15:22:19.779Z,13.42
2023-12-16T15:25:22.936Z,13.65
2023-12-16T15:28:26.073Z,13.85
2023-12-16T15:31:30.565Z,13.85
2023-12-16T15:34:34.097Z,13.94
2023-12-16T15:37:37.831Z,14.01
2023-12-16T15:40:42.489Z,14.02
2023-12-16T15:43:46.181Z,14.06
2023-12-16T15:46:49.370Z,14.20
2023-12-16T15:49:52.691Z,14.08
2023-12-16T15:52:55.867Z,13.97
2023-12-16T15:56:01.087Z,14.05
2023-12-16T15:59:04.364Z,13.93
2023-12-16T16:02:07.769Z,14.18
2023-12-16T16:05:11.200Z,13.99
2023-12-16T16:08:14.441Z,13.95
2023-12-16T16:11:17.623Z,14.18
2023-12-16T16:14:20.781Z,14.03
2023-12-16T16:17:23.908Z,13.63
2023-12-16T16:20:29.455Z,13.70
2023-12-16T16:23:32.712Z,13.90
2023-12-16T16:26:36.032Z,13.95
2023-12-16T16:29:39.227Z,14.00
2023-12-16T16:32:42.450Z,14.09
2023-12-16T16:35:47.776Z,14.26
2023-12-16T16:38:51.140Z,14.07
2023-12-16T16:41:54.576Z,14.01
2023-12-16T16:44:57.925Z,13.88
2023-12-16T16:48:04.214Z,13.82
2023-12-16T16:51:10.483Z,14.16
2023-12-16T16:54:16.221Z,14.06
2023-12-16T16:57:19.551Z,14.09
2023-12-16T17:00:23.112Z,14.20
2023-12-16T17:03:26.523Z,14.09
2023-12-16T17:06:29.999Z,14.09
2023-12-16T17:09:33.123Z,14.22
2023-12-16T17:12:36.394Z,14.24
2023-12-16T17:15:39.639Z,14.42
2023-12-16T17:18:43.247Z,14.65
2023-12-16T17:21:46.563Z,14.64
2023-12-16T17:24:49.765Z,14.53
2023-12-16T17:27:56.095Z,14.47
2023-12-16T17:31:02.449Z,14.58
2023-12-16T17:34:05.842Z,14.84
2023-12-16T17:37:09.232Z,15.05
2023-12-16T17:40:15.448Z,14.74
2023-12-16T17:43:18.802Z,14.70
2023-12-16T17:46:21.979Z,14.97
2023-12-16T17:49:25.280Z,14.80
2023-12-16T17:52:30.107Z,14.96
2023-12-16T17:55:33.793Z,15.12
2023-12-16T17:58:37.350Z,15.27
2023-12-16T18:01:42.597Z,15.40
2023-12-16T18:04:45.896Z,15.23
2023-12-16T18:07:49.280Z,15.50
2023-12-16T18:10:53.015Z,15.45
2023-12-16T18:13:56.212Z,15.32
2023-12-16T18:16:59.654Z,15.30
2023-12-16T18:20:03.028Z,15.24
2023-12-16T18:23:06.271Z,15.32
2023-12-16T18:26:09.517Z,15.26
2023-12-16T18:29:12.779Z,15.37
2023-12-16T18:32:16.043Z,15.29
2023-12-16T18:35:19.222Z,15.43
2023-12-16T18:38:22.514Z,15.28
2023-12-16T18:41:25.940Z,15.40
2023-12-16T18:44:29.249Z,15.20
2023-12-16T18:47:32.882Z,15.25
2023-12-16T18:50:36.224Z,15.15
2023-12-16T18:53:40.807Z,15.16
2023-12-16T18:56:44.337Z,15.03
2023-12-16T18:59:47.551Z,15.44
2023-12-16T19:02:50.823Z,15.45
2023-12-16T19:05:54.050Z,15.40
2023-12-16T19:08:57.465Z,15.51
2023-12-16T19:12:00.675Z,15.36
2023-12-16T19:15:04.968Z,15.39
2023-12-16T19:18:08.391Z,15.27
2023-12-16T19:21:11.910Z,15.21
2023-12-16T19:24:15.157Z,14.94
2023-12-16T19:27:20.372Z,14.48
2023-12-16T19:30:23.763Z,14.50
2023-12-16T19:33:27.139Z,14.35
2023-12-16T19:36:30.575Z,14.44
2023-12-16T19:39:33.753Z,14.47
2023-12-16T19:42:36.841Z,14.47
2023-12-16T19:45:40.047Z,14.41
2023-12-16T19:48:43.247Z,14.32
2023-12-16T19:51:46.552Z,14.15
2023-12-16T19:54:49.658Z,14.11
2023-12-16T19:57:52.885Z,14.38
2023-12-16T20:00:56.208Z,13.95
2023-12-16T20:03:59.419Z,13.85
2023-12-16T20:07:02.521Z,13.66
2023-12-16T20:10:07.371Z,13.53
2023-12-16T20:13:11.781Z,13.79
2023-12-16T20:16:15.802Z,13.52
2023-12-16T20:19:19.213Z,13.50
2023-12-16T20:22:24.546Z,13.71
2023-12-16T20:25:27.804Z,13.76
2023-12-16T20:28:30.962Z,13.96
2023-12-16T20:31:34.112Z,13.75
2023-12-16T20:34:37.475Z,13.74
2023-12-16T20:37:41.231Z,13.76
2023-12-16T20:40:45.364Z,13.66
2023-12-16T20:43:48.560Z,13.76
2023-12-16T20:46:51.791Z,13.43
2023-12-16T20:49:57.586Z,13.57
2023-12-16T20:53:01.065Z,13.57
2023-12-16T20:56:04.341Z,13.41
2023-12-16T20:59:07.603Z,13.44
2023-12-16T21:02:10.869Z,13.55
2023-12-16T21:05:14.202Z,13.68
2023-12-16T21:08:17.428Z,13.70
2023-12-16T21:11:20.719Z,13.39
2023-12-16T21:14:23.924Z,13.51
2023-12-16T21:17:27.645Z,13.37
2023-12-16T21:20:30.951Z,13.48
2023-12-16T21:23:34.523Z,13.68
2023-12-16T21:26:37.745Z,13.74
2023-12-16T21:29:41.409Z,13.75
2023-12-16T21:32:44.949Z,13.70
2023-12-16T21:35:49.140Z,13.84
2023-12-16T21:38:52.665Z,13.85
2023-12-16T21:41:56.126Z,13.63
2023-12-16T21:44:59.460Z,13.54
2023-12-16T21:48:03.028Z,13.62
2023-12-16T21:51:15.340Z,13.74
2023-12-16T21:54:18.920Z,13.75
2023-12-16T21:57:22.348Z,13.63
2023-12-16T22:00:25.711Z,13.83
2023-12-16T22:03:29.154Z,13.94
2023-12-16T22:06:32.479Z,13.79
2023-12-16T22:09:35.720Z,13.80
2023-12-16T22:12:39.861Z,13.88
2023-12-16T22:15:43.005Z,13.86
2023-12-16T22:18:46.486Z,13.89
2023-12-16T22:21:49.693Z,13.72
2023-12-16T22:24:53.080Z,13.64
2023-12-16T22:27:56.386Z,13.78
2023-12-16T22:30:59.810Z,13.83
2023-12-16T22:34:03.034Z,13.69
2023-12-16T22:37:06.367Z,13.85
2023-12-16T22:40:10.098Z,13.59
2023-12-16T22:43:13.263Z,13.61
2023-12-16T22:46:16.466Z,13.39
2023-12-16T22:49:19.840Z,13.47
2023-12-16T22:52:25.766Z,13.37
2023-12-16T22:55:31.057Z,13.58
2023-12-16T22:58:37.536Z,13.64
2023-12-16T23:01:43.938Z,13.47
2023-12-16T23:04:47.147Z,13.57
2023-12-16T23:07:51.742Z,13.53
2023-12-16T23:10:55.022Z,13.56
2023-12-16T23:14:00.829Z,13.16
2023-12-16T23:17:04.713Z,13.28
2023-12-16T23:20:08.666Z,13.39
2023-12-16T23:23:11.984Z,13.23
2023-12-16T23:26:15.311Z,13.17
2023-12-16T23:29:18.500Z,12.64
2023-12-16T23:32:21.819Z,12.67
2023-12-16T23:35:25.100Z,12.92
2023-12-16T23:38:28.400Z,12.87
2023-12-16T23:41:31.682Z,12.83
2023-12-16T23:44:34.907Z,12.55
2023-12-16T23:47:38.324Z,12.77
2023-12-16T23:50:41.873Z,12.63
2023-12-16T23:53:45.147Z,12.31
2023-12-16T23:56:48.468Z,12.00
2023-12-16T23:59:51.750Z,12.10
